Time,TemperatureF,DewpointF,PressureIn,WindDirection,WindDirectionDegrees,WindSpeedMPH,WindSpeedGustMPH,Humidity,HourlyPrecipIn,Conditions,Clouds,dailyrainin,SolarRadiationWatts/m^2,SoftwareType,DateUTC
2014-01-03 00:03:00,25.7,23.7,27.21,SW,236,0.0,0.0,92,0.00,,,0.00,0,WeatherCatV1.02B4,2014-01-03 07:03:00,
2014-01-03 00:18:00,25.8,23.8,27.20,SW,236,0.0,0.0,92,0.00,,,0.00,0,WeatherCatV1.02B4,2014-01-03 07:18:00,
2014-01-03 00:33:00,25.9,23.9,27.19,SW,236,0.0,0.0,92,0.00,,,0.00,0,WeatherCatV1.02B4,2014-01-03 07:33:00,
2014-01-03 00:48:00,26.0,24.0,27.18,SW,236,0.0,0.0,92,0.00,,,0.00,0,WeatherCatV1.02B4,2014-01-03 07:48:00,
2014-01-03 01:03:00,25.8,23.8,27.18,SW,236,0.0,0.0,92,0.00,,,0.00,0,WeatherCatV1.02B4,2014-01-03 08:03:00,
2014-01-03 01:18:00,25.5,23.5,27.17,SW,236,0.0,0.0,92,0.00,,,0.00,0,WeatherCatV1.02B4,2014-01-03 08:18:00,
2014-01-03 01:33:00,25.3,23.3,27.16,SW,236,0.0,0.0,92,0.00,,,0.00,0,WeatherCatV1.02B4,2014-01-03 08:33:00,
2014-01-03 01:48:00,25.2,23.2,27.15,SW,236,0.0,0.0,92,0.00,,,0.00,0,WeatherCatV1.02B4,2014-01-03 08:48:00,
2014-01-03 02:03:00,25.3,23.3,27.14,SW,236,0.0,0.0,92,0.00,,,0.00,0,WeatherCatV1.02B4,2014-01-03 09:03:00,
2014-01-03 02:18:00,25.6,23.9,27.14,SW,236,0.0,0.0,93,0.00,,,0.00,0,WeatherCatV1.02B4,2014-01-03 09:18:00,
2014-01-03 02:33:00,25.9,24.2,27.14,SW,236,0.0,0.0,93,0.00,,,0.00,0,WeatherCatV1.02B4,2014-01-03 09:33:00,
2014-01-03 02:48:00,26.0,24.3,27.14,SW,236,0.0,1.0,93,0.00,,,0.00,0,WeatherCatV1.02B4,2014-01-03 09:48:00,
2014-01-03 03:03:00,26.1,24.4,27.14,SW,236,0.0,0.0,93,0.00,,,0.00,0,WeatherCatV1.02B4,2014-01-03 10:03:00,
2014-01-03 03:18:00,26.3,24.6,27.12,SW,236,0.0,1.0,93,0.00,,,0.00,0,WeatherCatV1.02B4,2014-01-03 10:18:00,
2014-01-03 03:33:00,26.5,24.8,27.11,SW,236,0.0,0.0,93,0.00,,,0.00,0,WeatherCatV1.02B4,2014-01-03 10:33:00,
2014-01-03 03:48:00,26.7,25.0,27.10,SW,236,1.0,1.0,93,0.00,,,0.00,0,WeatherCatV1.02B4,2014-01-03 10:48:00,
2014-01-03 04:03:00,26.8,24.8,27.10,SW,236,0.0,0.0,92,0.00,,,0.00,0,WeatherCatV1.02B4,2014-01-03 11:03:00,
2014-01-03 04:18:00,27.0,25.0,27.09,SW,236,0.0,0.0,92,0.00,,,0.00,0,WeatherCatV1.02B4,2014-01-03 11:18:00,
2014-01-03 04:33:00,27.1,25.1,27.08,SW,236,0.0,0.0,92,0.00,,,0.00,0,WeatherCatV1.02B4,2014-01-03 11:33:00,
2014-01-03 04:48:00,27.1,25.1,27.07,SW,236,0.0,0.0,92,0.00,,,0.00,0,WeatherCatV1.02B4,2014-01-03 11:48:00,
2014-01-03 05:03:00,27.2,25.2,27.06,SW,236,0.0,0.0,92,0.00,,,0.00,0,WeatherCatV1.02B4,2014-01-03 12:03:00,
2014-01-03 05:18:00,27.2,25.2,27.03,SE,142,0.0,2.0,92,0.00,,,0.00,0,WeatherCatV1.02B4,2014-01-03 12:18:00,
2014-01-03 05:33:00,27.2,25.2,27.03,SSW,204,0.0,3.0,92,0.00,,,0.00,0,WeatherCatV1.02B4,2014-01-03 12:33:00,
2014-01-03 05:48:00,27.4,25.4,27.03,NNW,340,0.0,1.0,92,0.00,,,0.00,0,WeatherCatV1.02B4,2014-01-03 12:48:00,
2014-01-03 06:03:00,27.5,25.5,27.04,WNW,298,0.0,0.0,92,0.00,,,0.00,0,WeatherCatV1.02B4,2014-01-03 13:03:00,
2014-01-03 06:18:00,27.6,25.6,27.04,WNW,298,0.0,1.0,92,0.00,,,0.00,0,WeatherCatV1.02B4,2014-01-03 13:18:00,
2014-01-03 06:33:00,27.6,25.6,27.03,East,88,2.0,2.0,92,0.00,,,0.00,0,WeatherCatV1.02B4,2014-01-03 13:33:00,
2014-01-03 06:48:00,27.9,25.9,27.04,ENE,78,1.0,2.0,92,0.00,,,0.00,0,WeatherCatV1.02B4,2014-01-03 13:48:00,
2014-01-03 07:03:00,28.1,26.1,27.03,North,0,0.0,1.0,92,0.00,,,0.00,0,WeatherCatV1.02B4,2014-01-03 14:03:00,
2014-01-03 07:18:00,28.1,25.8,27.03,North,0,0.0,0.0,91,0.00,,,0.00,0,WeatherCatV1.02B4,2014-01-03 14:18:00,
2014-01-03 07:33:00,28.1,25.8,27.04,North,355,0.0,0.0,91,0.00,,,0.00,0,WeatherCatV1.02B4,2014-01-03 14:33:00,
2014-01-03 07:48:00,27.9,25.6,27.05,North,355,0.0,0.0,91,0.00,,,0.00,0,WeatherCatV1.02B4,2014-01-03 14:48:00,
2014-01-03 08:03:00,27.9,25.6,27.05,ESE,103,0.0,2.0,91,0.00,,,0.00,0,WeatherCatV1.02B4,2014-01-03 15:03:00,
2014-01-03 08:18:00,27.8,25.5,27.05,ESE,103,0.0,1.0,91,0.00,,,0.00,0,WeatherCatV1.02B4,2014-01-03 15:18:00,
2014-01-03 08:33:00,27.6,25.3,27.06,WNW,300,0.0,1.0,91,0.00,,,0.00,7,WeatherCatV1.02B4,2014-01-03 15:33:00,
2014-01-03 08:48:00,27.2,24.9,27.06,SE,126,1.0,2.0,91,0.00,,,0.00,12,WeatherCatV1.02B4,2014-01-03 15:48:00,
2014-01-03 09:03:00,26.7,24.7,27.05,SE,129,0.0,1.0,92,0.00,,,0.00,18,WeatherCatV1.02B4,2014-01-03 16:03:00,
2014-01-03 09:18:00,26.8,24.8,27.05,East,84,0.0,2.0,92,0.00,,,0.00,35,WeatherCatV1.02B4,2014-01-03 16:18:00,
2014-01-03 09:33:00,26.9,24.9,27.06,West,269,3.0,3.0,92,0.00,,,0.00,56,WeatherCatV1.02B4,2014-01-03 16:33:00,
2014-01-03 09:48:00,26.9,24.9,27.06,WNW,294,0.0,0.0,92,0.00,,,0.00,56,WeatherCatV1.02B4,2014-01-03 16:48:00,
2014-01-03 10:03:00,27.0,25.0,27.06,SW,225,0.0,0.0,92,0.00,,,0.00,58,WeatherCatV1.02B4,2014-01-03 17:03:00,
2014-01-03 10:18:00,28.0,26.0,27.06,SSW,209,0.0,1.0,92,0.00,,,0.00,301,WeatherCatV1.02B4,2014-01-03 17:18:00,
2014-01-03 10:33:00,29.8,27.0,27.05,WSW,244,1.0,3.0,89,0.00,,,0.00,381,WeatherCatV1.02B4,2014-01-03 17:33:00,
2014-01-03 10:48:00,32.0,28.3,27.06,WSW,244,0.0,0.0,86,0.00,,,0.00,223,WeatherCatV1.02B4,2014-01-03 17:48:00,
2014-01-03 11:03:00,33.9,29.0,27.06,West,264,0.0,3.0,82,0.00,,,0.00,155,WeatherCatV1.02B4,2014-01-03 18:03:00,
2014-01-03 11:18:00,33.4,28.8,27.06,West,272,1.0,2.0,83,0.00,,,0.00,183,WeatherCatV1.02B4,2014-01-03 18:18:00,
2014-01-03 11:33:00,34.0,28.8,27.06,West,272,0.0,0.0,81,0.00,,,0.00,146,WeatherCatV1.02B4,2014-01-03 18:33:00,
2014-01-03 11:48:00,34.6,29.1,27.04,West,272,0.0,2.0,80,0.00,,,0.00,134,WeatherCatV1.02B4,2014-01-03 18:48:00,
2014-01-03 12:03:00,35.2,29.4,27.03,West,272,0.0,1.0,79,0.00,,,0.00,431,WeatherCatV1.02B4,2014-01-03 19:03:00,
2014-01-03 12:18:00,36.7,29.9,27.01,West,272,0.0,0.0,76,0.00,,,0.00,432,WeatherCatV1.02B4,2014-01-03 19:18:00,
2014-01-03 12:33:00,38.0,30.8,27.00,West,272,1.0,1.0,75,0.00,,,0.00,439,WeatherCatV1.02B4,2014-01-03 19:33:00,
2014-01-03 12:48:00,40.2,31.6,26.99,SW,219,0.0,0.0,71,0.00,,,0.00,445,WeatherCatV1.02B4,2014-01-03 19:48:00,
2014-01-03 13:03:00,42.3,28.2,26.98,NE,38,0.0,1.0,57,0.00,,,0.00,443,WeatherCatV1.02B4,2014-01-03 20:03:00,
2014-01-03 13:18:00,44.0,25.6,26.96,WSW,244,5.0,7.0,48,0.00,,,0.00,443,WeatherCatV1.02B4,2014-01-03 20:18:00,
2014-01-03 13:33:00,44.3,25.9,26.96,NE,38,4.0,7.0,48,0.00,,,0.00,436,WeatherCatV1.02B4,2014-01-03 20:33:00,
2014-01-03 13:48:00,44.1,24.7,26.96,West,267,11.0,11.0,46,0.00,,,0.00,424,WeatherCatV1.02B4,2014-01-03 20:48:00,
2014-01-03 14:03:00,44.3,23.8,26.97,WNW,295,6.0,9.0,44,0.00,,,0.00,408,WeatherCatV1.02B4,2014-01-03 21:03:00,
2014-01-03 14:18:00,44.9,21.5,26.97,WNW,288,10.0,11.0,39,0.00,,,0.00,390,WeatherCatV1.02B4,2014-01-03 21:18:00,
2014-01-03 14:33:00,45.2,20.5,26.97,West,278,18.0,21.0,37,0.00,,,0.00,366,WeatherCatV1.02B4,2014-01-03 21:33:00,
2014-01-03 14:48:00,45.0,20.3,26.97,West,260,10.0,13.0,37,0.00,,,0.00,339,WeatherCatV1.02B4,2014-01-03 21:48:00,
2014-01-03 15:18:00,44.2,19.0,26.98,NW,323,6.0,7.0,36,0.00,,,0.00,281,WeatherCatV1.02B4,2014-01-03 22:18:00,
2014-01-03 15:33:00,44.6,15.1,26.99,WNW,296,2.0,3.0,30,0.00,,,0.00,237,WeatherCatV1.02B4,2014-01-03 22:33:00,
2014-01-03 15:48:00,43.9,16.0,26.99,NNW,338,2.0,9.0,32,0.00,,,0.00,195,WeatherCatV1.02B4,2014-01-03 22:48:00,
2014-01-03 16:03:00,43.3,16.8,26.99,NNW,332,3.0,10.0,34,0.00,,,0.00,146,WeatherCatV1.02B4,2014-01-03 23:03:00,
2014-01-03 16:18:00,42.4,17.4,26.99,NW,322,0.0,3.0,36,0.00,,,0.00,21,WeatherCatV1.02B4,2014-01-03 23:18:00,
2014-01-03 16:33:00,41.6,17.3,26.99,NNW,340,2.0,3.0,37,0.00,,,0.00,18,WeatherCatV1.02B4,2014-01-03 23:33:00,
2014-01-03 16:48:00,41.1,16.8,26.99,NW,312,2.0,12.0,37,0.00,,,0.00,14,WeatherCatV1.02B4,2014-01-03 23:48:00,
2014-01-03 17:03:00,40.8,17.8,27.00,NNW,331,0.0,5.0,39,0.00,,,0.00,11,WeatherCatV1.02B4,2014-01-04 00:03:00,
2014-01-03 17:18:00,39.5,18.3,27.00,North,0,1.0,3.0,42,0.00,,,0.00,5,WeatherCatV1.02B4,2014-01-04 00:18:00,
2014-01-03 17:33:00,38.2,19.3,27.00,North,11,2.0,3.0,46,0.00,,,0.00,0,WeatherCatV1.02B4,2014-01-04 00:33:00,
2014-01-03 17:48:00,36.9,19.1,27.00,NE,40,3.0,4.0,48,0.00,,,0.00,0,WeatherCatV1.02B4,2014-01-04 00:48:00,
2014-01-03 18:03:00,34.0,20.8,27.00,NE,51,4.0,5.0,58,0.00,,,0.00,0,WeatherCatV1.02B4,2014-01-04 01:03:00,
2014-01-03 18:18:00,32.2,20.3,27.00,ENE,61,3.0,4.0,61,0.00,,,0.00,0,WeatherCatV1.02B4,2014-01-04 01:18:00,
2014-01-03 18:33:00,31.9,20.4,27.00,NW,309,0.0,0.0,62,0.00,,,0.00,0,WeatherCatV1.02B4,2014-01-04 01:33:00,
2014-01-03 18:48:00,30.4,20.1,27.00,NW,309,0.0,1.0,65,0.00,,,0.00,0,WeatherCatV1.02B4,2014-01-04 01:48:00,
2014-01-03 19:03:00,29.6,20.4,27.01,NW,309,0.0,1.0,68,0.00,,,0.00,0,WeatherCatV1.02B4,2014-01-04 02:03:00,
2014-01-03 19:18:00,28.9,20.7,27.01,NW,309,0.0,0.0,71,0.00,,,0.00,0,WeatherCatV1.02B4,2014-01-04 02:18:00,
2014-01-03 19:33:00,28.5,20.6,27.02,NW,309,0.0,0.0,72,0.00,,,0.00,0,WeatherCatV1.02B4,2014-01-04 02:33:00,
2014-01-03 19:48:00,28.4,20.5,27.03,NW,309,0.0,0.0,72,0.00,,,0.00,0,WeatherCatV1.02B4,2014-01-04 02:48:00,
2014-01-03 20:03:00,28.0,20.5,27.03,NW,309,0.0,0.0,73,0.00,,,0.00,0,WeatherCatV1.02B4,2014-01-04 03:03:00,
2014-01-03 20:18:00,27.2,20.0,27.04,NW,309,0.0,0.0,74,0.00,,,0.00,0,WeatherCatV1.02B4,2014-01-04 03:18:00,
2014-01-03 20:33:00,26.4,19.9,27.04,NW,309,0.0,0.0,76,0.00,,,0.00,0,WeatherCatV1.02B4,2014-01-04 03:33:00,
2014-01-03 20:48:00,25.9,19.4,27.05,NW,309,0.0,1.0,76,0.00,,,0.00,0,WeatherCatV1.02B4,2014-01-04 03:48:00,
2014-01-03 21:03:00,25.1,19.5,27.05,NW,309,0.0,0.0,79,0.00,,,0.00,0,WeatherCatV1.02B4,2014-01-04 04:03:00,
2014-01-03 21:18:00,25.0,19.1,27.06,ESE,123,0.0,1.0,78,0.00,,,0.00,0,WeatherCatV1.02B4,2014-01-04 04:18:00,
2014-01-03 21:33:00,24.3,18.4,27.06,North,0,0.0,0.0,78,0.00,,,0.00,0,WeatherCatV1.02B4,2014-01-04 04:33:00,
2014-01-03 21:48:00,23.7,18.5,27.07,ENE,59,0.0,1.0,80,0.00,,,0.00,0,WeatherCatV1.02B4,2014-01-04 04:48:00,
2014-01-03 22:03:00,22.9,18.0,27.08,East,85,0.0,0.0,81,0.00,,,0.00,0,WeatherCatV1.02B4,2014-01-04 05:03:00,
2014-01-03 22:18:00,22.0,17.6,27.08,East,96,0.0,2.0,83,0.00,,,0.00,0,WeatherCatV1.02B4,2014-01-04 05:18:00,
2014-01-03 22:33:00,21.6,17.8,27.08,East,95,0.0,0.0,85,0.00,,,0.00,0,WeatherCatV1.02B4,2014-01-04 05:33:00,
2014-01-03 22:48:00,21.0,17.2,27.09,ENE,66,0.0,2.0,85,0.00,,,0.00,0,WeatherCatV1.02B4,2014-01-04 05:48:00,
2014-01-03 23:03:00,21.1,17.3,27.09,SSE,148,0.0,1.0,85,0.00,,,0.00,0,WeatherCatV1.02B4,2014-01-04 06:03:00,
2014-01-03 23:18:00,20.2,15.9,27.10,NNE,30,1.0,2.0,83,0.00,,,0.00,0,WeatherCatV1.02B4,2014-01-04 06:18:00,
2014-01-03 23:33:00,19.5,15.7,27.10,NE,47,0.0,0.0,85,0.00,,,0.00,0,WeatherCatV1.02B4,2014-01-04 06:33:00,
2014-01-03 23:48:00,19.3,16.1,27.11,ENE,69,0.0,0.0,87,0.00,,,0.00,0,WeatherCatV1.02B4,2014-01-04 06:48:00,